Palmers Green, United Kingdom
Current Conditions -  °F | °C
As of 6:50 PM on Friday 21 Nov 2014 (Local Time) from EGLC Reporting Station
Light Rain Light Rain  
Wind Chill: 46°   Ceiling: 900
Heat Index: 48°   Visibility: 4mi
Dew Point: 45°   Wind: 6mph
Humidity: 87%   Direction: 100°E
Pressure: 29.97"   Gusts: NA
Location:  51.62°N, 0.11°W
Report Text: EGLC 211850Z 10005KT 6000 -RA FEW007 BKN009 09/07 Q1015
Loading
Personal Weather Stations






























Interactive Weather Map New forecast layout! Learn more

10-Day Weather Forecast

Advertisements
Track Severe Weather on mobile